Flight Track Log - Related Links

Times and Time Zones

All times are in EDT time to prevent confusion due to time zone crossing. See the DAL3682 flight status page for this flight to view local times or setup timezone preferences in your user account.


Time Position Orientation Groundspeed Altitude Reporting Facility
EDT Latitude Longitude Course Direction KTS MPH feet Rate Location/Type
Wed 11:37:12 AM 39.0500 -84.6833 293° West 169 194 1,500  Level Cincinnati TRACON
Wed 11:38:00 AM 39.0500 -84.7500 270° West 175 201 2,700 1,722 Climbing Cincinnati TRACON
Wed 11:39:00 AM 38.9461 -84.8396 312° West  Level FlightAware Approximate
Wed 11:39:00 AM 39.0500 -84.8333 270° West 278 320 4,600  Level Cincinnati TRACON
Wed 11:40:00 AM 39.0189 -84.9450 311° West  Level FlightAware Approximate
Wed 11:40:00 AM 39.0500 -84.9333 270° West 272 313 7,400  Level Cincinnati TRACON
Wed 11:40:20 AM 39.0486 -84.9594 266° West 273 314 7,800 1,976 Climbing Indianapolis Center
Wed 11:41:00 AM 39.0833 -85.0581 297° West  Level FlightAware Approximate
Wed 11:41:22 AM 39.0836 -85.0628 294° West 309 356 10,100  Level Indianapolis Center
Wed 11:42:00 AM 39.1288 -85.1865 293° West  Level FlightAware Approximate
Wed 11:42:23 AM 39.1267 -85.1783 296° West 357 411 11,300  Level Indianapolis Center
Wed 11:43:25 AM 39.1794 -85.3194 296° West 371 427 14,200 2,226 Climbing Indianapolis Center
Wed 11:44:27 AM 39.2294 -85.4364 299° West 371 427 15,900 1,645 Climbing Indianapolis Center
Wed 11:45:29 AM 39.2975 -85.5403 310° West 375 432 17,600 1,258 Climbing Indianapolis Center
Wed 11:46:31 AM 39.3667 -85.6489 309° West 387 445 18,500 1,122 Climbing Indianapolis Center
Wed 11:47:32 AM 39.4364 -85.7594 309° West 397 457 19,900 1,220 Climbing Indianapolis Center
Wed 11:48:34 AM 39.5069 -85.8728 309° West 401 461 21,000 1,161 Climbing Indianapolis Center
Wed 11:49:36 AM 39.5797 -85.9881 309° West 408 470 22,300 1,065 Climbing Indianapolis Center
Wed 11:50:38 AM 39.6519 -86.1042 309° West 410 472 23,200 1,024 Climbing Indianapolis Center
Wed 11:51:39 AM 39.7364 -86.2394 309° West 413 475 24,400 829 Climbing Indianapolis Center
Wed 11:52:41 AM 39.8111 -86.3603 309° West 422 486 24,900 581 Climbing Indianapolis Center
Wed 11:53:43 AM 39.8761 -86.4819 305° West 433 498 25,600 629 Climbing Indianapolis Center
Wed 11:54:45 AM 39.9450 -86.6117 305° West 435 501 26,200 726 Climbing Indianapolis Center
Wed 11:55:47 AM 40.0631 -86.7047 329° Northwest 424 488 27,100 906 Climbing Indianapolis Center
Wed 11:56:31 AM 40.1386 -86.7425 339° North 433 498 27,800 514 Climbing Chicago Center
Wed 11:57:32 AM 40.2497 -86.7972 339° North 427 491 28,000 98 Climbing Chicago Center
Wed 11:58:34 AM 40.3664 -86.8544 340° North 442 509 28,000  Level Chicago Center
Wed 11:59:36 AM 40.4828 -86.9125 339° North 446 513 28,000  Level Chicago Center
Wed 12:00:37 PM 40.5994 -86.9708 339° North 446 513 28,000  Level Chicago Center
Wed 12:01:39 PM 40.7203 -87.0311 339° North 443 510 28,000  Level Chicago Center
Wed 12:02:41 PM 40.8347 -87.0883 339° North 442 509 28,000  Level Chicago Center
Wed 12:03:42 PM 40.9514 -87.1442 340° North 447 514 28,000  Level Chicago Center
Wed 12:04:44 PM 41.0886 -87.2136 339° North 444 511 28,000  Level Chicago Center
Wed 12:05:46 PM 41.2008 -87.2739 338° Northwest 441 507 28,000  Level Chicago Center
Wed 12:06:48 PM 41.3136 -87.3322 339° North 440 506 28,000  Level Chicago Center
Wed 12:07:49 PM 41.4281 -87.3911 339° North 443 510 28,000  Level Chicago Center
Wed 12:08:51 PM 41.5417 -87.4494 339° North 443 510 28,000  Level Chicago Center
Wed 12:09:53 PM 41.6792 -87.5203 339° North 447 514 28,000  Level Chicago Center
Wed 12:10:54 PM 41.7942 -87.5797 339° North 449 517 28,000  Level Chicago Center
Wed 12:11:56 PM 41.9086 -87.6394 339° North 448 516 28,000  Level Chicago Center
Wed 12:12:58 PM 42.0242 -87.7003 339° North 449 517 28,000  Level Chicago Center
Wed 12:14:00 PM 42.1403 -87.7606 339° North 450 518 28,000  Level Chicago Center
Wed 12:15:01 PM 42.2800 -87.8361 338° Northwest 455 524 28,000  Level Chicago Center
Wed 12:16:03 PM 42.3931 -87.8958 339° North 450 518 28,000  Level Chicago Center
Wed 12:17:05 PM 42.5056 -87.9700 334° Northwest 458 527 28,000  Level Chicago Center
Wed 12:18:07 PM 42.5975 -88.0822 318° Northwest 448 516 28,000  Level Chicago Center
Wed 12:19:08 PM 42.6908 -88.1956 318° Northwest 448 516 28,000  Level Chicago Center
Wed 12:20:10 PM 42.7983 -88.3294 318° Northwest 449 517 28,000  Level Chicago Center
Wed 12:21:12 PM 42.8914 -88.4447 318° Northwest 451 519 28,000  Level Chicago Center
Wed 12:22:14 PM 42.9836 -88.5592 318° Northwest 447 514 28,000  Level Chicago Center
Wed 12:23:16 PM 43.0764 -88.6758 317° Northwest 449 517 28,000  Level Chicago Center
Wed 12:24:18 PM 43.1694 -88.7914 318° Northwest 448 516 28,000  Level Chicago Center
Wed 12:25:20 PM 43.2617 -88.9089 317° Northwest 448 516 28,000  Level Chicago Center
Wed 12:26:22 PM 43.3550 -89.0264 318° Northwest 451 519 28,000  Level Chicago Center
Wed 12:27:24 PM 43.4461 -89.1442 317° Northwest 448 516 28,000  Level Chicago Center
Wed 12:28:25 PM 43.5531 -89.2806 317° Northwest 447 514 28,000  Level Chicago Center
Wed 12:29:27 PM 43.6453 -89.3969 318° Northwest 447 514 28,000  Level Chicago Center
Wed 12:30:15 PM 43.7208 -89.4950 317° Northwest 446 513 28,000  Level Minneapolis Center
Wed 12:31:17 PM 43.8100 -89.6119 317° Northwest 443 510 28,000  Level Minneapolis Center
Wed 12:32:18 PM 43.9003 -89.7297 317° Northwest 445 512 28,000  Level Minneapolis Center
Wed 12:33:20 PM 43.9906 -89.8478 317° Northwest 445 512 28,000  Level Minneapolis Center
Wed 12:34:22 PM 44.0794 -89.9681 316° Northwest 445 512 28,000  Level Minneapolis Center
Wed 12:35:23 PM 44.1539 -90.1025 308° West 440 506 28,000  Level Minneapolis Center
Wed 12:36:25 PM 44.2289 -90.2361 308° West 438 504 28,000  Level Minneapolis Center
Wed 12:37:27 PM 44.3142 -90.3944 307° West 438 504 28,000  Level Minneapolis Center
Wed 12:38:30 PM 44.3900 -90.5286 308° West 439 505 28,000  Level Minneapolis Center
Wed 12:39:31 PM 44.4639 -90.6625 308° West 435 501 28,000  Level Minneapolis Center
Wed 12:40:33 PM 44.5369 -90.7992 307° West 437 503 28,000  Level Minneapolis Center
Wed 12:41:35 PM 44.6064 -90.9289 307° West 435 501 28,000  Level Minneapolis Center
Wed 12:42:36 PM 44.6539 -91.0428 300° West 430 495 28,000  Level Minneapolis Center
Wed 12:43:38 PM 44.7211 -91.2544 294° West 426 490 28,000 -48 Level Minneapolis Center
Wed 12:44:40 PM 44.7708 -91.4039 295° West 424 488 27,900 -1,024 Descending Minneapolis Center
Wed 12:45:41 PM 44.8192 -91.5556 294° West 427 491 25,900 -2,439 Descending Minneapolis Center
Wed 12:46:43 PM 44.8658 -91.6989 295° West 415 478 22,900 -2,903 Descending Minneapolis Center
Wed 12:47:45 PM 44.9094 -91.8344 294° West 392 451 19,900 -2,585 Descending Minneapolis Center
Wed 12:48:46 PM 44.9508 -91.9672 294° West 376 433 17,600 -2,390 Descending Minneapolis Center
Wed 12:49:48 PM 44.9919 -92.0975 294° West 367 422 15,000 -2,758 Descending Minneapolis Center
Wed 12:50:50 PM 45.0381 -92.2456 294° West 347 399 11,900 -2,390 Descending Minneapolis Center
Wed 12:51:51 PM 45.0383 -92.3625 270° West 302 348 10,100 -1,512 Descending Minneapolis Center
Wed 12:52:53 PM 45.0031 -92.4542 241° Southwest 267 307 8,800 -1,220 Descending Minneapolis Center
Wed 12:53:54 PM 44.9650 -92.5200 231° Southwest 269 310 7,600 -878 Descending Minneapolis Center
Wed 12:54:56 PM 44.8969 -92.5781 211° Southwest 235 270 7,000 -290 Descending Minneapolis Center
Wed 12:55:58 PM 44.8442 -92.6253 212° Southwest 227 261 7,000  Level Minneapolis Center
Wed 12:57:00 PM 44.7744 -92.6531 196° South 219 252 7,000 -829 Level Minneapolis Center
Wed 12:58:01 PM 44.7153 -92.6700 192° South 219 252 5,300 -1,366 Descending Minneapolis Center
Wed 12:59:03 PM 44.6583 -92.6911 195° South 212 244 4,200 -629 Descending Minneapolis Center
Wed 01:00:05 PM 44.6828 -92.7392 306° West 171 197 4,000 -97 Descending Minneapolis Center
Wed 01:01:07 PM 44.7086 -92.7944 303° West 169 194 4,000  Level Minneapolis Center
Wed 01:02:08 PM 44.7306 -92.8506 299° West 167 192 4,000  Level Minneapolis Center
Wed 01:03:10 PM 44.7606 -92.9175 302° West 169 194 4,000  Level Minneapolis Center
Wed 01:04:12 PM 44.7858 -92.9747 302° West 172 198 4,000 -145 Level Minneapolis Center
Wed 01:05:14 PM 44.8106 -93.0317 301° West 172 198 3,700 -290 Descending Minneapolis Center

Login

Don't have an account? Register now (free) for customized features, flight alerts, and more!